Time;durP1;ratioP1;P1;durP2;ratioP2;P2;SDS_P1;SDS_P2;PMS_P1;PMS_P2;Temp;Humidity;BMP_temperature;BMP_pressure;BME280_temperature;BME280_humidity;BME280_pressure;Samples;Min_cycle;Max_cycle;Signal;HPM_P1;HPM_P2
2021/07/10 00:01:25;;;;;;;13.23;6.63;;;;;;;23.82;60.89;99853.59;4767999;30;20543;-49
2021/07/10 00:03:51;;;;;;;14.43;5.47;;;;;;;23.83;60.78;99865.06;4769145;30;20465;-48
2021/07/10 00:06:16;;;;;;;11.65;5.65;;;;;;;23.81;61.30;99857.25;4769877;30;20047;-53
2021/07/10 00:08:42;;;;;;;8.82;5.20;;;;;;;23.79;60.79;99851.22;4769733;30;20050;-50
2021/07/10 00:11:08;;;;;;;11.82;5.15;;;;;;;23.78;60.59;99846.88;4766623;29;20071;-49
2021/07/10 00:13:34;;;;;;;7.47;5.13;;;;;;;23.78;60.38;99846.03;4766642;30;20134;-52
2021/07/10 00:15:59;;;;;;;8.40;4.95;;;;;;;23.79;60.20;99853.03;4768119;30;20051;-53
2021/07/10 00:18:25;;;;;;;8.27;5.30;;;;;;;23.79;60.28;99853.03;4752073;30;20047;-52
2021/07/10 00:20:51;;;;;;;8.85;5.13;;;;;;;23.77;60.20;99853.16;4768547;29;20044;-51
2021/07/10 00:23:16;;;;;;;9.30;5.40;;;;;;;23.76;60.41;99846.16;4766888;30;20044;-54
2021/07/10 00:25:42;;;;;;;9.82;5.43;;;;;;;23.73;60.58;99858.84;4768363;30;20170;-52
2021/07/10 00:28:08;;;;;;;10.25;5.47;;;;;;;23.71;60.71;99858.97;4767507;29;20733;-50
2021/07/10 00:30:35;;;;;;;8.15;5.05;;;;;;;23.71;60.85;99855.50;4767545;30;20057;-50
2021/07/10 00:33:02;;;;;;;8.85;5.88;;;;;;;23.69;60.84;99860.09;4766836;29;20070;-53
2021/07/10 00:35:27;;;;;;;8.70;5.30;;;;;;;23.65;61.33;99856.88;4768425;30;20051;-51
2021/07/10 00:37:53;;;;;;;11.50;5.53;;;;;;;23.63;61.89;99857.00;4766846;29;20079;-53
2021/07/10 00:40:19;;;;;;;12.18;5.68;;;;;;;23.57;62.06;99856.69;4765600;29;20504;-49
2021/07/10 00:42:45;;;;;;;9.55;5.45;;;;;;;23.53;62.69;99860.56;4767769;29;20544;-48
2021/07/10 00:45:15;;;;;;;10.93;5.30;;;;;;;23.47;63.02;99861.09;4754149;29;20051;-49
2021/07/10 00:47:41;;;;;;;10.02;6.10;;;;;;;23.46;63.31;99870.00;4770182;30;20520;-50
2021/07/10 00:50:16;;;;;;;10.70;5.55;;;;;;;23.42;62.98;99858.78;4767826;29;20039;-49
2021/07/10 00:52:42;;;;;;;9.52;5.50;;;;;;;23.42;63.05;99861.44;4762347;30;20477;-49
2021/07/10 00:55:09;;;;;;;7.18;5.18;;;;;;;23.43;63.39;99856.97;4769363;30;20139;-51
2021/07/10 00:57:36;;;;;;;10.65;4.95;;;;;;;23.47;63.71;99864.59;4770001;30;20193;-50
2021/07/10 01:00:06;;;;;;;10.93;5.80;;;;;;;23.49;64.02;99864.47;4753853;30;20055;-53
2021/07/10 01:02:32;;;;;;;13.05;5.55;;;;;;;23.51;64.17;99860.69;4767241;29;20123;-50
2021/07/10 01:04:58;;;;;;;9.07;5.47;;;;;;;23.54;63.77;99868.41;4769189;29;20050;-53
2021/07/10 01:07:24;;;;;;;13.15;5.20;;;;;;;23.57;63.45;99865.47;4768669;29;20457;-49
2021/07/10 01:09:50;;;;;;;10.35;5.50;;;;;;;23.60;63.50;99867.03;4767137;29;20142;-51
2021/07/10 01:12:16;;;;;;;11.48;5.88;;;;;;;23.61;63.65;99860.75;4766936;30;20055;-49
2021/07/10 01:14:43;;;;;;;13.77;5.53;;;;;;;23.61;63.65;99860.75;4769391;29;20416;-54
2021/07/10 01:17:08;;;;;;;10.02;5.03;;;;;;;23.61;63.75;99863.41;4763857;29;20063;-51
2021/07/10 01:19:34;;;;;;;10.57;5.35;;;;;;;23.59;63.92;99873.31;4768049;29;20047;-48
2021/07/10 01:22:00;;;;;;;13.10;5.40;;;;;;;23.54;64.31;99862.25;4766735;30;20168;-50
2021/07/10 01:24:26;;;;;;;10.38;6.07;;;;;;;23.48;64.40;99868.09;4755554;29;20059;-49
2021/07/10 01:26:52;;;;;;;11.73;5.78;;;;;;;23.46;64.71;99875.31;4767456;29;20423;-53
2021/07/10 01:29:18;;;;;;;11.60;5.10;;;;;;;23.41;64.89;99873.03;4766446;29;20068;-53
2021/07/10 01:31:45;;;;;;;25.33;11.15;;;;;;;23.39;65.02;99869.69;4752586;30;20142;-50
2021/07/10 01:34:10;;;;;;;12.80;5.38;;;;;;;23.37;64.96;99868.09;4766794;30;20194;-49
2021/07/10 01:36:37;;;;;;;8.80;5.03;;;;;;;23.35;65.31;99870.03;4752057;30;20090;-49
2021/07/10 01:39:06;;;;;;;13.05;5.20;;;;;;;23.33;65.41;99872.00;4769195;30;20050;-49
2021/07/10 01:41:46;;;;;;;15.38;5.70;;;;;;;23.32;65.52;99862.34;4768350;30;20047;-49
2021/07/10 01:44:13;;;;;;;8.43;5.50;;;;;;;23.29;65.62;99866.09;4766413;29;20047;-48
2021/07/10 01:46:42;;;;;;;13.38;5.13;;;;;;;23.29;66.23;99866.09;4766957;29;20044;-50
2021/07/10 01:49:08;;;;;;;8.13;5.28;;;;;;;23.28;65.99;99869.75;4767756;29;20044;-49
2021/07/10 01:51:33;;;;;;;10.70;6.10;;;;;;;23.28;66.02;99871.53;4768431;30;20428;-50
2021/07/10 01:53:59;;;;;;;13.60;5.43;;;;;;;23.26;66.23;99869.00;4768455;30;20131;-51
2021/07/10 01:56:25;;;;;;;37.40;7.30;;;;;;;23.24;66.44;99860.31;4764947;30;20079;-49
2021/07/10 01:58:50;;;;;;;8.70;5.28;;;;;;;23.24;66.55;99870.94;4768088;29;20074;-49
2021/07/10 02:01:16;;;;;;;8.98;5.18;;;;;;;23.23;66.63;99872.78;4768715;30;20086;-52
2021/07/10 02:03:42;;;;;;;8.68;5.22;;;;;;;23.26;66.61;99873.47;4751153;30;20048;-51
2021/07/10 02:06:10;;;;;;;18.83;5.53;;;;;;;23.27;66.38;99868.03;4765977;30;20040;-52
2021/07/10 02:08:37;;;;;;;8.73;4.73;;;;;;;23.29;66.27;99866.09;4768948;30;20130;-53
2021/07/10 02:11:03;;;;;;;7.80;5.10;;;;;;;23.31;65.88;99864.16;4766340;30;20612;-50
2021/07/10 02:13:29;;;;;;;10.98;5.20;;;;;;;23.34;66.17;99858.63;4768738;29;20134;-50
2021/07/10 02:15:55;;;;;;;12.15;5.32;;;;;;;23.38;66.08;99865.34;4766031;29;20051;-51
2021/07/10 02:18:20;;;;;;;9.63;5.25;;;;;;;23.47;65.75;99861.09;4747107;30;20082;-50
2021/07/10 02:20:46;;;;;;;19.90;5.65;;;;;;;23.57;65.60;99864.63;4757518;30;20128;-52
2021/07/10 02:23:12;;;;;;;9.77;5.15;;;;;;;23.65;65.42;99862.19;4767903;29;20077;-53
2021/07/10 02:25:38;;;;;;;9.27;5.25;;;;;;;23.73;65.27;99862.34;4765616;29;20052;-50
2021/07/10 02:28:04;;;;;;;10.68;5.47;;;;;;;23.81;65.01;99857.25;4751454;30;20060;-52
2021/07/10 02:30:32;;;;;;;10.18;5.00;;;;;;;23.91;63.24;99854.63;4767998;30;20036;-51
2021/07/10 02:32:58;;;;;;;10.52;5.00;;;;;;;24.00;63.65;99862.63;4766487;30;20051;-49
2021/07/10 02:35:24;;;;;;;10.68;5.80;;;;;;;24.08;62.58;99856.63;4764964;29;20048;-51
2021/07/10 02:37:51;;;;;;;10.85;4.82;;;;;;;24.17;62.39;99852.34;4751124;30;20047;-49
2021/07/10 02:40:18;;;;;;;7.43;4.60;;;;;;;24.23;60.86;99855.34;4766713;30;20063;-48
2021/07/10 02:42:46;;;;;;;8.55;4.38;;;;;;;24.31;60.88;99860.81;4767222;29;20056;-49
2021/07/10 02:45:14;;;;;;;7.32;4.40;;;;;;;24.40;60.08;99852.00;4763836;29;20079;-48
2021/07/10 02:47:40;;;;;;;8.82;4.82;;;;;;;24.48;60.13;99854.00;4767026;30;20184;-48
2021/07/10 02:50:09;;;;;;;10.32;4.50;;;;;;;24.58;59.26;99854.84;4752005;30;20047;-48
2021/07/10 02:52:35;;;;;;;10.45;4.50;;;;;;;24.66;59.69;99859.47;4765010;30;20044;-51
2021/07/10 02:55:04;;;;;;;8.25;4.80;;;;;;;24.72;59.62;99848.28;4765927;30;20577;-53
2021/07/10 02:57:29;;;;;;;10.88;4.53;;;;;;;24.79;59.17;99844.94;4766590;29;20056;-53
2021/07/10 02:59:55;;;;;;;8.93;4.60;;;;;;;24.85;58.18;99844.41;4767554;30;20051;-55
2021/07/10 03:02:21;;;;;;;7.40;4.60;;;;;;;24.92;57.63;99847.34;4767875;30;20454;-50
2021/07/10 03:04:47;;;;;;;9.65;5.15;;;;;;;24.97;57.70;99846.91;4764257;30;20043;-53
2021/07/10 03:07:12;;;;;;;8.70;4.43;;;;;;;25.03;57.52;99843.72;4769990;29;20424;-51
2021/07/10 03:09:38;;;;;;;5.95;4.28;;;;;;;25.08;57.99;99839.66;4769074;30;20055;-50
2021/07/10 03:12:05;;;;;;;7.97;4.32;;;;;;;25.14;58.25;99846.22;4763685;30;20526;-52
2021/07/10 03:14:31;;;;;;;10.35;5.28;;;;;;;25.22;57.46;99849.03;4770684;30;20052;-54
2021/07/10 03:16:56;;;;;;;9.32;4.78;;;;;;;25.30;57.03;99844.66;4767821;30;20054;-51
2021/07/10 03:19:22;;;;;;;10.57;5.15;;;;;;;25.38;56.69;99843.97;4771271;29;20130;-52
2021/07/10 03:21:49;;;;;;;14.02;5.10;;;;;;;25.50;56.58;99845.47;4770709;30;20082;-50
2021/07/10 03:24:14;;;;;;;11.30;5.13;;;;;;;25.58;56.77;99844.78;4768871;30;20051;-50
2021/07/10 03:26:40;;;;;;;9.60;4.28;;;;;;;25.67;56.67;99842.09;4769253;30;20354;-51
2021/07/10 03:29:06;;;;;;;7.85;4.72;;;;;;;25.72;56.83;99844.31;4769604;29;20440;-50
2021/07/10 03:31:31;;;;;;;12.35;5.25;;;;;;;25.71;56.35;99846.16;4770394;30;20384;-53
2021/07/10 03:33:57;;;;;;;11.50;5.28;;;;;;;25.72;56.16;99842.50;4770342;30;20131;-51
2021/07/10 03:36:26;;;;;;;9.50;5.32;;;;;;;25.71;56.56;99848.81;4768332;30;20126;-51
2021/07/10 03:38:52;;;;;;;12.80;6.10;;;;;;;25.73;56.69;99848.66;4768904;30;20060;-51
2021/07/10 03:41:18;;;;;;;8.57;5.65;;;;;;;25.69;56.84;99842.81;4766211;30;20426;-50
2021/07/10 03:43:45;;;;;;;10.07;5.75;;;;;;;25.64;57.39;99841.56;4771425;29;20135;-52
2021/07/10 03:46:11;;;;;;;16.73;9.00;;;;;;;25.63;57.82;99842.53;4768254;30;20052;-51
2021/07/10 03:48:37;;;;;;;13.82;7.38;;;;;;;25.62;58.41;99838.19;4763828;30;20053;-52
2021/07/10 03:51:03;;;;;;;19.38;7.40;;;;;;;25.59;58.75;99846.47;4764919;29;20083;-51
2021/07/10 03:53:29;;;;;;;11.98;6.47;;;;;;;25.58;57.67;99842.13;4768614;29;20047;-52
2021/07/10 03:55:55;;;;;;;13.73;7.43;;;;;;;25.60;57.65;99840.16;4764362;30;20051;-51
2021/07/10 03:58:20;;;;;;;7.75;5.53;;;;;;;25.58;56.85;99842.13;4763873;29;20095;-54
2021/07/10 04:00:46;;;;;;;9.18;5.40;;;;;;;25.57;56.68;99841.28;4762382;30;20043;-49
2021/07/10 04:03:12;;;;;;;11.07;5.95;;;;;;;25.56;56.58;99841.44;4764142;29;20523;-51
2021/07/10 04:05:37;;;;;;;9.98;6.40;;;;;;;25.52;56.87;99829.34;4746351;29;21411;-49
2021/07/10 04:08:03;;;;;;;13.60;5.93;;;;;;;25.53;56.97;99828.38;4761016;30;20055;-52
2021/07/10 04:10:29;;;;;;;7.95;5.40;;;;;;;25.55;56.87;99829.94;4763203;29;20122;-50
2021/07/10 04:12:55;;;;;;;9.98;6.15;;;;;;;25.58;56.95;99828.81;4761894;30;20075;-52
2021/07/10 04:15:21;;;;;;;8.68;5.38;;;;;;;25.62;56.84;99830.19;4747058;29;20048;-51
2021/07/10 04:17:46;;;;;;;11.63;5.72;;;;;;;25.62;56.46;99827.53;4760869;29;20134;-50
2021/07/10 04:20:13;;;;;;;7.93;5.88;;;;;;;25.62;56.44;99828.38;4762159;29;20432;-50
2021/07/10 04:22:39;;;;;;;10.80;5.60;;;;;;;25.65;56.58;99828.06;4768077;29;20123;-55
2021/07/10 04:25:08;;;;;;;8.55;5.75;;;;;;;25.67;56.93;99826.13;4753280;30;20048;-46
2021/07/10 04:27:34;;;;;;;9.20;5.35;;;;;;;25.70;56.72;99832.97;4765516;30;20077;-45
2021/07/10 04:30:00;;;;;;;9.68;5.10;;;;;;;25.74;56.66;99834.38;4769159;29;20075;-47
2021/07/10 04:32:26;;;;;;;9.13;4.93;;;;;;;25.75;56.26;99830.69;4769036;30;20508;-49
2021/07/10 04:34:53;;;;;;;8.65;4.90;;;;;;;25.78;56.90;99826.91;4768698;29;20131;-47
2021/07/10 04:37:19;;;;;;;9.85;4.93;;;;;;;25.82;56.13;99826.47;4768094;30;20105;-47
2021/07/10 04:39:44;;;;;;;9.73;5.40;;;;;;;25.86;56.50;99829.69;4769920;30;20054;-48
2021/07/10 04:42:10;;;;;;;10.45;4.78;;;;;;;25.88;56.06;99819.72;4759079;29;20044;-46
2021/07/10 04:44:36;;;;;;;11.50;5.53;;;;;;;25.92;56.17;99823.78;4769674;29;20059;-47
2021/07/10 04:47:02;;;;;;;10.00;4.85;;;;;;;25.97;55.69;99818.84;4768951;29;20067;-48
2021/07/10 04:49:29;;;;;;;13.88;4.60;;;;;;;26.01;56.17;99818.41;4766397;30;20512;-47
2021/07/10 04:51:55;;;;;;;9.80;5.30;;;;;;;26.05;55.87;99819.81;4765638;30;20085;-45
2021/07/10 04:54:21;;;;;;;13.23;5.60;;;;;;;26.11;56.12;99821.88;4769265;29;20130;-46
2021/07/10 04:56:46;;;;;;;9.63;4.72;;;;;;;26.17;55.86;99813.25;4769334;29;20047;-47
2021/07/10 04:59:12;;;;;;;7.95;4.97;;;;;;;26.22;55.45;99815.53;4766914;30;20079;-47
2021/07/10 05:01:38;;;;;;;6.68;4.65;;;;;;;26.28;54.94;99811.41;4768983;30;20479;-45
2021/07/10 05:04:04;;;;;;;6.82;4.35;;;;;;;26.32;55.21;99821.66;4768636;29;20052;-45
2021/07/10 05:06:29;;;;;;;11.15;5.03;;;;;;;26.38;55.03;99813.03;4769277;30;20535;-46
2021/07/10 05:08:55;;;;;;;8.77;5.82;;;;;;;26.44;54.90;99814.25;4769610;30;20094;-47
2021/07/10 05:11:21;;;;;;;6.30;4.65;;;;;;;26.51;54.59;99823.34;4767770;29;20059;-46
2021/07/10 05:13:46;;;;;;;12.30;4.50;;;;;;;26.58;54.70;99816.44;4767960;30;20443;-47
2021/07/10 05:16:12;;;;;;;6.72;4.35;;;;;;;26.62;53.55;99809.78;4769244;29;20052;-47
2021/07/10 05:18:38;;;;;;;5.70;3.90;;;;;;;26.68;53.40;99811.84;4768976;29;20058;-47
2021/07/10 05:21:04;;;;;;;7.57;4.47;;;;;;;26.74;52.98;99808.59;4768355;29;20047;-49
2021/07/10 05:23:30;;;;;;;6.25;4.72;;;;;;;26.84;53.28;99814.69;4767434;29;20488;-48
2021/07/10 05:25:56;;;;;;;6.55;4.95;;;;;;;26.98;52.97;99813.31;4767042;30;20040;-48
2021/07/10 05:28:22;;;;;;;6.28;4.30;;;;;;;27.09;51.88;99809.56;4768268;29;20067;-46
2021/07/10 05:30:49;;;;;;;7.30;4.72;;;;;;;27.16;51.27;99803.47;4767476;29;20051;-47
2021/07/10 05:33:16;;;;;;;7.45;4.97;;;;;;;27.21;51.98;99806.50;4768190;30;20043;-47
2021/07/10 05:35:45;;;;;;;5.13;4.40;;;;;;;27.32;51.98;99802.75;4768930;29;20048;-48
